Hefei, China
Current Conditions -  °F | °C
As of 2:00 AM on Saturday 25 Oct 2014 (Local Time) from ZSOF Reporting Station
Haze Haze  
Wind Chill: 59°   Ceiling: Unl
Heat Index: 59°   Visibility: 2.5mi
Dew Point: 55°   Wind: 4mph
Humidity: 88%   Direction: 160°SSE
Pressure: 30"   Gusts: NA
Location:  31.85°N, 117.28°E
Report Text: ZSOF 241800Z 16002MPS 4000 BR NSC 15/13 Q1016 NOSIG
Loading
Personal Weather Stations






























Interactive Weather Map
Tropical Storm Tracking
New forecast layout! Learn more

10-Day Weather Forecast

Advertisements
Track Severe Weather on mobile